Time;durP1;ratioP1;P1;durP2;ratioP2;P2;SDS_P1;SDS_P2;PMS_P1;PMS_P2;Temp;Humidity;BMP_temperature;BMP_pressure;BME280_temperature;BME280_humidity;BME280_pressure;Samples;Min_cycle;Max_cycle;Signal;HPM_P1;HPM_P2
2023/04/13 00:05:15;;;;;;;8.57;6.70;;;15.70;81.90;;;;;;10856438;32;20058;-72
2023/04/13 00:11:18;;;;;;;11.68;9.50;;;15.60;81.80;;;;;;10870257;32;20024;-72
2023/04/13 00:17:20;;;;;;;9.60;8.20;;;15.40;81.60;;;;;;10869964;32;20046;-72
2023/04/13 00:23:22;;;;;;;13.62;11.55;;;15.40;81.60;;;;;;10867470;32;20484;-72
2023/04/13 00:29:24;;;;;;;11.05;8.02;;;15.30;81.70;;;;;;10855618;32;20024;-73
2023/04/13 00:35:26;;;;;;;15.32;6.47;;;15.20;82.00;;;;;;10853902;32;20031;-72
2023/04/13 00:41:28;;;;;;;11.05;6.80;;;15.20;82.40;;;;;;10868919;32;20015;-72
2023/04/13 00:47:32;;;;;;;10.30;6.90;;;15.20;82.20;;;;;;10865754;32;20069;-72
2023/04/13 00:53:35;;;;;;;9.10;6.62;;;15.00;82.00;;;;;;10866449;32;20027;-72
2023/04/13 00:59:37;;;;;;;9.77;5.78;;;14.90;82.30;;;;;;10866590;32;20016;-72
2023/04/13 01:06:05;;;;;;;7.25;5.53;;;15.10;82.30;;;;;;10866038;32;20019;-72
2023/04/13 01:12:25;;;;;;;9.25;6.20;;;15.20;81.90;;;;;;10866939;32;20393;-72
2023/04/13 01:18:30;;;;;;;9.35;7.00;;;15.20;81.70;;;;;;10866475;32;20453;-72
2023/04/13 01:24:52;;;;;;;10.52;8.02;;;15.10;81.80;;;;;;10864147;32;20027;-68
2023/04/13 01:30:59;;;;;;;7.75;6.07;;;15.00;81.90;;;;;;10851630;32;20019;-72
2023/04/13 01:37:03;;;;;;;8.40;5.70;;;14.80;81.90;;;;;;10864739;32;20015;-72
2023/04/13 01:43:07;;;;;;;9.52;7.62;;;14.80;81.80;;;;;;10851092;32;20066;-72
2023/04/13 01:49:19;;;;;;;8.43;5.70;;;14.80;82.00;;;;;;10865802;32;20097;-71
2023/04/13 01:55:22;;;;;;;8.98;6.05;;;14.80;82.20;;;;;;10864567;32;20028;-72
2023/04/13 02:01:25;;;;;;;10.10;8.15;;;14.60;81.50;;;;;;10838871;32;20035;-72
2023/04/13 02:07:27;;;;;;;8.23;5.82;;;14.40;82.00;;;;;;10864933;32;20428;-72
2023/04/13 02:13:30;;;;;;;10.30;7.78;;;14.30;81.60;;;;;;10861271;32;20015;-72
2023/04/13 02:19:33;;;;;;;8.55;6.65;;;14.40;82.10;;;;;;10850636;32;20093;-72
2023/04/13 02:25:37;;;;;;;7.15;5.72;;;14.40;81.90;;;;;;10865380;32;20027;-72
2023/04/13 02:31:42;;;;;;;11.82;8.90;;;14.50;82.10;;;;;;10864424;32;20028;-72
2023/04/13 02:37:45;;;;;;;6.47;4.32;;;14.50;81.80;;;;;;10864818;32;20039;-72
2023/04/13 02:43:51;;;;;;;14.30;10.20;;;14.50;81.90;;;;;;10863887;32;20027;-72
2023/04/13 02:49:53;;;;;;;9.82;7.90;;;14.60;81.80;;;;;;10863927;32;20049;-72
2023/04/13 02:55:56;;;;;;;9.05;6.78;;;14.50;81.50;;;;;;10860740;32;20066;-68
2023/04/13 03:01:58;;;;;;;9.80;7.43;;;14.40;81.70;;;;;;10863176;32;20019;-69
2023/04/13 03:08:01;;;;;;;5.82;4.00;;;14.30;81.80;;;;;;10862869;32;20077;-68
2023/04/13 03:14:03;;;;;;;11.12;9.15;;;14.50;81.70;;;;;;10870214;32;20023;-68
2023/04/13 03:20:13;;;;;;;8.18;6.37;;;14.40;81.60;;;;;;10869150;32;20024;-68
2023/04/13 03:26:16;;;;;;;11.98;7.60;;;14.40;81.90;;;;;;10851881;32;20023;-69
2023/04/13 03:32:18;;;;;;;10.70;6.65;;;14.40;81.70;;;;;;10866447;32;20425;-68
2023/04/13 03:38:22;;;;;;;11.07;7.25;;;14.30;81.80;;;;;;10866681;32;20050;-69
2023/04/13 03:44:24;;;;;;;13.35;8.90;;;14.30;81.70;;;;;;10868644;32;20091;-72
2023/04/13 03:50:27;;;;;;;9.55;6.30;;;14.20;81.40;;;;;;10867847;32;20086;-68
2023/04/13 03:56:30;;;;;;;8.50;6.25;;;14.20;81.80;;;;;;10868068;32;20019;-68
2023/04/13 04:02:32;;;;;;;10.02;8.48;;;14.20;81.70;;;;;;10868573;32;20023;-69
2023/04/13 04:08:34;;;;;;;7.82;5.53;;;14.20;81.90;;;;;;10867806;32;20024;-69
2023/04/13 04:14:37;;;;;;;11.60;8.50;;;14.20;82.30;;;;;;10867508;32;20050;-69
2023/04/13 04:20:39;;;;;;;8.13;4.70;;;14.20;82.20;;;;;;10864393;32;20057;-68
2023/04/13 04:26:49;;;;;;;7.82;6.35;;;14.20;82.00;;;;;;10863886;32;20050;-69
2023/04/13 04:32:51;;;;;;;9.60;7.20;;;14.30;82.00;;;;;;10866048;32;20390;-69
2023/04/13 04:38:56;;;;;;;9.20;5.72;;;14.30;81.80;;;;;;10866156;32;20337;-69
2023/04/13 04:45:00;;;;;;;7.75;6.10;;;14.40;81.90;;;;;;10868172;32;20024;-68
2023/04/13 04:51:02;;;;;;;12.63;9.80;;;14.40;82.10;;;;;;10850708;32;20040;-69
2023/04/13 04:57:09;;;;;;;9.52;8.52;;;14.20;82.10;;;;;;10867361;32;20012;-69
2023/04/13 05:03:12;;;;;;;7.70;6.47;;;14.00;82.50;;;;;;10865723;32;20027;-70
2023/04/13 05:09:16;;;;;;;7.18;5.70;;;13.90;83.00;;;;;;10862842;32;20038;-69
2023/04/13 05:15:20;;;;;;;9.07;6.90;;;13.90;82.70;;;;;;10867104;32;20028;-69
2023/04/13 05:21:22;;;;;;;18.83;13.45;;;13.80;82.90;;;;;;10839859;32;20086;-69
2023/04/13 05:27:26;;;;;;;14.40;10.98;;;13.90;82.60;;;;;;10865149;32;20023;-69
2023/04/13 05:33:29;;;;;;;15.35;12.02;;;13.70;82.90;;;;;;10864191;32;20016;-69
2023/04/13 05:39:32;;;;;;;14.00;10.50;;;13.60;83.20;;;;;;10864407;32;20024;-69
2023/04/13 05:45:35;;;;;;;10.23;7.37;;;13.70;83.30;;;;;;10861180;32;20393;-69
2023/04/13 05:51:38;;;;;;;10.43;6.90;;;13.70;83.10;;;;;;10864636;32;20023;-70
2023/04/13 05:57:40;;;;;;;7.93;5.32;;;13.90;83.20;;;;;;10864621;32;20015;-70
2023/04/13 06:03:43;;;;;;;8.25;6.45;;;14.20;83.00;;;;;;10863887;32;20059;-71
2023/04/13 06:09:45;;;;;;;8.52;5.70;;;14.30;83.30;;;;;;10864233;32;20314;-70
2023/04/13 06:15:48;;;;;;;7.87;5.00;;;14.50;83.70;;;;;;10860322;32;20034;-70
2023/04/13 06:21:51;;;;;;;8.68;6.70;;;14.70;84.00;;;;;;10862734;32;20043;-70
2023/04/13 06:27:53;;;;;;;9.43;7.25;;;14.70;83.70;;;;;;10848777;32;20032;-70
2023/04/13 06:33:56;;;;;;;6.90;5.43;;;14.60;83.90;;;;;;10864297;32;20027;-70
2023/04/13 06:39:58;;;;;;;7.57;4.65;;;14.70;84.00;;;;;;10850124;32;20035;-70
2023/04/13 06:46:01;;;;;;;7.87;5.90;;;14.70;83.90;;;;;;10868152;32;20047;-69
2023/04/13 06:52:04;;;;;;;7.65;5.45;;;14.80;83.90;;;;;;10870748;32;20019;-69
2023/04/13 06:58:07;;;;;;;8.00;5.30;;;14.60;83.70;;;;;;10868986;32;20333;-69
2023/04/13 07:04:10;;;;;;;11.48;8.00;;;14.60;84.50;;;;;;10855348;32;20058;-69
2023/04/13 07:10:13;;;;;;;9.93;6.68;;;14.70;84.70;;;;;;10850290;32;20299;-69
2023/04/13 07:16:16;;;;;;;16.05;12.10;;;14.70;84.40;;;;;;10866309;32;20378;-73
2023/04/13 07:22:18;;;;;;;8.18;5.80;;;14.60;84.40;;;;;;10870048;32;20045;-73
2023/04/13 07:28:21;;;;;;;10.10;7.05;;;14.60;84.50;;;;;;10868770;32;20445;-73
2023/04/13 07:34:25;;;;;;;14.20;9.60;;;14.60;84.80;;;;;;10869268;32;20046;-73
2023/04/13 07:40:28;;;;;;;9.48;4.90;;;14.50;84.80;;;;;;10870820;32;20023;-74
2023/04/13 07:46:32;;;;;;;12.00;9.77;;;14.50;85.20;;;;;;10859119;32;20050;-74
2023/04/13 07:52:34;;;;;;;11.30;9.68;;;14.40;84.90;;;;;;10747747;27;4153544;-73
2023/04/13 07:58:37;;;;;;;8.60;7.70;;;14.30;84.90;;;;;;10870338;32;20028;-74
2023/04/13 08:04:39;;;;;;;10.88;7.22;;;14.30;84.60;;;;;;10870437;32;20058;-73
2023/04/13 08:10:42;;;;;;;7.03;4.10;;;14.10;84.70;;;;;;10870201;32;20051;-73
2023/04/13 08:16:45;;;;;;;13.73;9.60;;;14.10;85.00;;;;;;10870005;32;20417;-73
2023/04/13 08:22:47;;;;;;;4.40;3.42;;;14.20;84.90;;;;;;10869795;32;20028;-73
2023/04/13 08:28:51;;;;;;;7.93;5.53;;;14.40;85.10;;;;;;10870691;32;20051;-73
2023/04/13 08:35:11;;;;;;;5.62;3.95;;;14.60;84.70;;;;;;10869317;32;20015;-73
2023/04/13 08:41:16;;;;;;;8.70;5.72;;;14.70;84.50;;;;;;10870285;32;20394;-73
2023/04/13 08:47:23;;;;;;;10.20;7.25;;;14.80;84.40;;;;;;10869996;32;20043;-73
2023/04/13 08:53:27;;;;;;;17.10;6.20;;;14.70;84.30;;;;;;10867255;32;20460;-73
2023/04/13 08:59:30;;;;;;;9.65;6.95;;;14.60;84.40;;;;;;10868803;32;20049;-72
2023/04/13 09:05:38;;;;;;;7.07;4.37;;;14.50;84.20;;;;;;10854131;32;20395;-72
2023/04/13 09:11:41;;;;;;;9.15;6.55;;;14.60;84.60;;;;;;10855054;32;20015;-73
2023/04/13 09:17:43;;;;;;;10.48;6.72;;;14.50;84.50;;;;;;10868740;32;20019;-73
2023/04/13 09:23:57;;;;;;;7.93;5.93;;;14.50;84.60;;;;;;10868019;32;20050;-73
2023/04/13 09:30:00;;;;;;;7.40;5.10;;;14.40;84.80;;;;;;10868996;32;20042;-73
2023/04/13 09:36:10;;;;;;;12.00;8.75;;;14.40;84.90;;;;;;10853110;32;20574;-73
2023/04/13 09:42:12;;;;;;;9.90;7.00;;;14.60;85.00;;;;;;10867805;32;20059;-73
2023/04/13 09:48:20;;;;;;;6.03;4.07;;;14.60;85.20;;;;;;10853695;32;20034;-73
2023/04/13 09:54:22;;;;;;;7.75;5.80;;;14.70;85.20;;;;;;10853540;32;20063;-73
2023/04/13 10:00:24;;;;;;;9.30;7.18;;;14.90;85.20;;;;;;10866922;32;20039;-73
2023/04/13 10:06:27;;;;;;;6.55;4.40;;;14.90;85.10;;;;;;10866912;32;20028;-73
2023/04/13 10:12:34;;;;;;;10.82;7.85;;;15.00;85.00;;;;;;10866605;32;20019;-73
2023/04/13 10:19:08;;;;;;;8.80;5.93;;;15.10;85.10;;;;;;10866714;32;20432;-73
2023/04/13 10:25:14;;;;;;;10.20;7.60;;;15.00;85.10;;;;;;10853838;32;20346;-74
2023/04/13 10:31:17;;;;;;;11.80;8.32;;;14.90;85.20;;;;;;10865984;32;20020;-74
2023/04/13 10:37:24;;;;;;;11.38;6.97;;;15.00;86.30;;;;;;10866407;32;20054;-73
2023/04/13 10:43:30;;;;;;;11.00;8.65;;;15.10;86.00;;;;;;10865461;32;20062;-74
2023/04/13 10:49:32;;;;;;;11.48;8.70;;;15.20;86.20;;;;;;10863305;32;20236;-73
2023/04/13 10:55:35;;;;;;;12.93;11.45;;;15.00;86.00;;;;;;10865289;32;20358;-74
2023/04/13 11:01:39;;;;;;;8.80;5.47;;;15.00;86.30;;;;;;10853151;32;20050;-73
2023/04/13 11:07:44;;;;;;;7.60;5.62;;;14.90;86.20;;;;;;10864878;32;20016;-74
2023/04/13 11:13:46;;;;;;;7.93;6.43;;;14.80;86.50;;;;;;10851764;32;20382;-74
2023/04/13 11:19:53;;;;;;;4.12;3.05;;;14.80;86.40;;;;;;10850539;32;20024;-74
2023/04/13 11:26:00;;;;;;;4.28;2.67;;;14.50;86.20;;;;;;10866133;32;20019;-74
2023/04/13 11:32:04;;;;;;;3.05;1.62;;;14.50;85.40;;;;;;10867805;32;20055;-73
2023/04/13 11:38:16;;;;;;;1.30;1.20;;;14.40;86.40;;;;;;10868678;32;20019;-73
2023/04/13 11:44:18;;;;;;;4.15;2.47;;;14.70;86.70;;;;;;10871706;32;20035;-73
2023/04/13 11:50:21;;;;;;;1.65;1.42;;;14.60;85.40;;;;;;10871880;32;20027;-73
2023/04/13 11:56:24;;;;;;;3.75;2.17;;;14.30;86.10;;;;;;10868060;32;20066;-73
2023/04/13 12:02:28;;;;;;;2.70;1.80;;;14.30;85.80;;;;;;10870555;32;20042;-73
2023/04/13 12:08:48;;;;;;;2.87;2.10;;;14.30;85.80;;;;;;10867953;32;20028;-74
2023/04/13 12:14:55;;;;;;;2.30;1.80;;;14.40;86.30;;;;;;10870787;32;20350;-73
2023/04/13 12:21:00;;;;;;;2.95;2.37;;;14.30;85.70;;;;;;10870964;32;20053;-73
2023/04/13 12:27:05;;;;;;;2.53;1.75;;;14.20;85.00;;;;;;10871084;32;20046;-73
2023/04/13 12:33:07;;;;;;;3.55;1.92;;;14.10;85.20;;;;;;10870651;32;20066;-73
2023/04/13 12:39:09;;;;;;;3.17;2.10;;;13.90;84.90;;;;;;10856623;32;20042;-70
2023/04/13 12:45:12;;;;;;;2.58;1.58;;;14.00;84.90;;;;;;10869786;32;20406;-70
2023/04/13 12:51:14;;;;;;;4.75;1.73;;;14.20;85.40;;;;;;10870117;32;20039;-70
2023/04/13 12:57:16;;;;;;;1.25;1.15;;;14.00;84.00;;;;;;10866457;32;20159;-69
2023/04/13 13:03:19;;;;;;;1.73;1.20;;;13.80;83.90;;;;;;10869774;32;20023;-70
2023/04/13 13:09:21;;;;;;;1.25;1.15;;;14.00;85.10;;;;;;10869169;32;20035;-70
2023/04/13 13:15:23;;;;;;;0.85;0.80;;;14.20;84.90;;;;;;10869370;32;20054;-70
2023/04/13 13:21:25;;;;;;;1.45;1.35;;;14.10;84.60;;;;;;10866570;32;20031;-74
2023/04/13 13:27:28;;;;;;;1.90;1.50;;;14.10;85.50;;;;;;10868420;32;20302;-74
2023/04/13 13:33:31;;;;;;;1.50;1.00;;;14.00;83.40;;;;;;10868768;32;20042;-74
2023/04/13 13:39:34;;;;;;;1.37;0.90;;;13.80;83.40;;;;;;10861939;32;20101;-74
2023/04/13 13:45:36;;;;;;;1.45;1.08;;;13.70;82.80;;;;;;10867702;32;20054;-74
2023/04/13 13:51:39;;;;;;;0.82;0.82;;;13.80;84.10;;;;;;10867321;32;20023;-74
2023/04/13 13:57:42;;;;;;;1.58;1.00;;;13.70;84.00;;;;;;10867310;32;20054;-74
2023/04/13 14:03:44;;;;;;;1.25;1.15;;;13.50;83.40;;;;;;10865319;32;20098;-73
2023/04/13 14:09:46;;;;;;;1.37;1.27;;;13.50;82.80;;;;;;10839847;32;20062;-74
2023/04/13 14:15:48;;;;;;;2.15;1.27;;;13.50;83.60;;;;;;10861034;32;20444;-74
2023/04/13 14:21:52;;;;;;;1.62;1.30;;;13.50;83.40;;;;;;10866175;32;20015;-74
2023/04/13 14:27:55;;;;;;;1.90;1.20;;;13.50;83.50;;;;;;10854742;32;20016;-74
2023/04/13 14:33:57;;;;;;;1.60;1.20;;;13.50;83.70;;;;;;10853775;32;20024;-73
2023/04/13 14:39:59;;;;;;;1.80;1.37;;;13.40;84.10;;;;;;10866816;32;20015;-74
2023/04/13 14:46:02;;;;;;;1.12;0.98;;;13.30;83.00;;;;;;10867105;32;20024;-74
2023/04/13 14:52:06;;;;;;;1.25;1.15;;;13.30;84.10;;;;;;10832848;32;20029;-73
2023/04/13 14:58:08;;;;;;;1.10;1.10;;;13.20;83.00;;;;;;10829085;33;20028;-75
2023/04/13 15:04:11;;;;;;;2.10;1.50;;;13.20;82.90;;;;;;10829118;32;20050;-75
2023/04/13 15:10:13;;;;;;;1.12;0.90;;;13.20;83.20;;;;;;10836022;32;20051;-74
2023/04/13 15:16:16;;;;;;;1.45;1.33;;;13.10;82.70;;;;;;10835972;32;20350;-74
2023/04/13 15:22:19;;;;;;;2.35;1.62;;;12.90;84.10;;;;;;10836315;32;20054;-75
2023/04/13 15:28:21;;;;;;;2.30;1.37;;;13.00;84.30;;;;;;10821259;32;20027;-73
2023/04/13 15:34:23;;;;;;;4.60;2.08;;;12.80;84.30;;;;;;10820558;32;20035;-75
2023/04/13 15:40:26;;;;;;;13.40;2.70;;;12.70;84.50;;;;;;10831794;32;20346;-75
2023/04/13 15:46:28;;;;;;;2.75;1.90;;;12.60;84.50;;;;;;10834612;32;20032;-74
2023/04/13 15:52:37;;;;;;;1.95;1.80;;;12.60;84.60;;;;;;10856412;27;20039;-74
2023/04/13 15:58:40;;;;;;;;;;;12.60;84.30;;;;;;10871616;32;20058;-74
2023/04/13 16:04:42;;;;;;;1.20;1.02;;;12.30;83.60;;;;;;10871912;32;20324;-74
2023/04/13 16:10:45;;;;;;;2.08;1.48;;;12.40;84.20;;;;;;10871777;32;20024;-74
2023/04/13 16:16:52;;;;;;;2.75;2.03;;;12.60;84.60;;;;;;10856335;32;20444;-74
2023/04/13 16:22:58;;;;;;;2.00;1.80;;;12.80;85.00;;;;;;10856128;32;20039;-74
2023/04/13 16:29:00;;;;;;;4.22;2.35;;;12.80;85.00;;;;;;10858458;32;20019;-74
2023/04/13 16:35:02;;;;;;;3.37;1.70;;;12.90;85.50;;;;;;10870329;32;20350;-74
2023/04/13 16:41:05;;;;;;;2.05;1.52;;;12.80;85.00;;;;;;10870347;32;20020;-75
2023/04/13 16:47:07;;;;;;;2.28;1.85;;;12.50;84.80;;;;;;10857222;32;20019;-74
2023/04/13 16:53:10;;;;;;;2.50;1.55;;;12.30;84.70;;;;;;10869292;32;20046;-74
2023/04/13 16:59:12;;;;;;;1.52;1.42;;;12.30;85.10;;;;;;10870051;32;20058;-74
2023/04/13 17:05:14;;;;;;;1.85;1.25;;;12.20;85.30;;;;;;10865982;32;20424;-74
2023/04/13 17:11:17;;;;;;;1.52;1.40;;;12.30;85.40;;;;;;10868859;32;20019;-74
2023/04/13 17:17:19;;;;;;;1.20;1.15;;;12.20;84.90;;;;;;10854425;32;20054;-74
2023/04/13 17:23:22;;;;;;;2.05;1.33;;;12.10;85.30;;;;;;10868590;32;20028;-74
2023/04/13 17:29:24;;;;;;;0.85;0.85;;;12.00;85.00;;;;;;10867421;32;20345;-73
2023/04/13 17:35:26;;;;;;;1.73;1.10;;;12.00;85.80;;;;;;10867679;32;20057;-73
2023/04/13 17:41:28;;;;;;;3.12;1.60;;;12.20;86.00;;;;;;10868625;32;20419;-73
2023/04/13 17:47:30;;;;;;;1.87;1.50;;;12.20;84.70;;;;;;10855192;32;20020;-73
2023/04/13 17:53:32;;;;;;;2.08;1.30;;;12.10;85.10;;;;;;10863189;32;20017;-73
2023/04/13 17:59:34;;;;;;;2.97;1.83;;;12.10;84.80;;;;;;10867515;32;20023;-73
2023/04/13 18:05:43;;;;;;;1.50;1.40;;;11.90;85.20;;;;;;10866321;32;20019;-73
2023/04/13 18:11:45;;;;;;;1.30;1.20;;;12.00;85.20;;;;;;10867779;32;20046;-73
2023/04/13 18:17:47;;;;;;;1.52;1.33;;;12.00;85.60;;;;;;10865926;32;20116;-73
2023/04/13 18:23:49;;;;;;;2.67;1.70;;;12.00;85.20;;;;;;10867026;32;20034;-73
2023/04/13 18:29:55;;;;;;;1.87;1.50;;;11.90;85.00;;;;;;10827072;32;20027;-73
2023/04/13 18:35:57;;;;;;;3.12;1.60;;;12.00;85.10;;;;;;10830338;33;20043;-73
2023/04/13 18:41:59;;;;;;;2.35;1.83;;;12.00;85.10;;;;;;10830578;32;20325;-73
2023/04/13 18:48:01;;;;;;;3.12;1.92;;;12.10;85.30;;;;;;10822726;32;20031;-73
2023/04/13 18:54:04;;;;;;;1.90;1.58;;;12.10;84.80;;;;;;10818598;33;20400;-73
2023/04/13 19:00:09;;;;;;;2.20;1.50;;;12.10;84.80;;;;;;10836255;32;20050;-73
2023/04/13 19:06:11;;;;;;;2.55;1.98;;;12.00;85.30;;;;;;10836947;32;20024;-73
2023/04/13 19:12:13;;;;;;;2.05;1.80;;;11.90;84.00;;;;;;10835332;32;20070;-73
2023/04/13 19:18:16;;;;;;;1.58;1.45;;;11.80;84.10;;;;;;10817763;33;20032;-72
2023/04/13 19:24:18;;;;;;;1.50;1.08;;;11.70;84.80;;;;;;10833878;32;20035;-72
2023/04/13 19:30:20;;;;;;;1.85;1.60;;;11.80;85.70;;;;;;10835638;32;20047;-72
2023/04/13 19:36:22;;;;;;;2.97;1.80;;;11.80;84.80;;;;;;10822328;32;20020;-73
2023/04/13 19:42:24;;;;;;;1.15;0.90;;;11.70;84.90;;;;;;10831858;32;20307;-72
2023/04/13 19:48:27;;;;;;;4.35;1.70;;;11.70;85.30;;;;;;10835611;32;20042;-73
2023/04/13 19:54:29;;;;;;;1.73;1.12;;;11.70;83.40;;;;;;10833438;32;20362;-72
2023/04/13 20:00:31;;;;;;;1.40;1.30;;;11.60;84.60;;;;;;10834511;32;20050;-72
2023/04/13 20:06:33;;;;;;;1.02;1.02;;;11.50;83.40;;;;;;10819416;32;20407;-73
2023/04/13 20:12:35;;;;;;;0.70;0.70;;;11.40;84.10;;;;;;10833989;32;20027;-73
2023/04/13 20:18:37;;;;;;;2.00;1.42;;;11.50;84.10;;;;;;10819957;32;20350;-73
2023/04/13 20:24:40;;;;;;;1.30;1.12;;;11.50;84.00;;;;;;10832464;32;20051;-73
2023/04/13 20:30:42;;;;;;;1.37;1.25;;;11.50;84.30;;;;;;10833433;32;20038;-72
2023/04/13 20:36:45;;;;;;;0.95;0.85;;;11.40;83.50;;;;;;10818992;32;20075;-72
2023/04/13 20:42:47;;;;;;;1.12;1.05;;;11.50;84.60;;;;;;10833274;32;20046;-72
2023/04/13 20:48:51;;;;;;;1.23;1.12;;;11.60;84.40;;;;;;10833435;32;20034;-72
2023/04/13 20:54:53;;;;;;;1.50;1.37;;;11.60;84.40;;;;;;10864863;32;20035;-72
2023/04/13 21:00:56;;;;;;;1.15;1.05;;;11.50;84.60;;;;;;10869889;32;20058;-72
2023/04/13 21:07:00;;;;;;;3.20;1.52;;;11.50;85.20;;;;;;10869500;32;20020;-72
2023/04/13 21:13:03;;;;;;;1.98;1.87;;;11.60;85.50;;;;;;10869043;32;20012;-73
2023/04/13 21:19:05;;;;;;;1.83;1.20;;;11.50;84.70;;;;;;10869453;32;20020;-72
2023/04/13 21:25:08;;;;;;;2.50;1.40;;;11.30;84.60;;;;;;10868640;32;20015;-72
2023/04/13 21:31:11;;;;;;;1.55;1.45;;;11.20;84.40;;;;;;10869127;32;20314;-72
2023/04/13 21:37:13;;;;;;;0.90;0.90;;;11.20;85.60;;;;;;10853884;32;20031;-72
2023/04/13 21:43:15;;;;;;;3.80;1.02;;;11.20;84.90;;;;;;10868573;32;20054;-72
2023/04/13 21:49:17;;;;;;;1.37;0.82;;;11.20;85.50;;;;;;10867885;32;20016;-71
2023/04/13 21:55:20;;;;;;;0.98;0.90;;;11.20;85.50;;;;;;10864109;32;20024;-71
2023/04/13 22:01:22;;;;;;;1.25;1.05;;;11.20;85.60;;;;;;10868046;32;20102;-72
2023/04/13 22:07:24;;;;;;;0.60;0.60;;;11.30;85.80;;;;;;10867489;32;20299;-71
2023/04/13 22:13:26;;;;;;;0.62;0.60;;;11.30;85.70;;;;;;10867382;32;20011;-71
2023/04/13 22:19:29;;;;;;;1.02;0.75;;;11.20;85.60;;;;;;10866990;32;20382;-71
2023/04/13 22:25:34;;;;;;;0.65;0.50;;;11.20;85.70;;;;;;10866300;32;20020;-71
2023/04/13 22:31:36;;;;;;;0.43;0.30;;;11.10;85.80;;;;;;10867494;32;20019;-71
2023/04/13 22:37:39;;;;;;;0.20;0.20;;;11.20;85.60;;;;;;10864900;32;20016;-72
2023/04/13 22:43:41;;;;;;;0.50;0.50;;;11.20;85.50;;;;;;10853386;32;20050;-71
2023/04/13 22:49:43;;;;;;;0.40;0.40;;;11.20;85.90;;;;;;10853382;32;20039;-71
2023/04/13 22:55:45;;;;;;;0.52;0.50;;;11.10;86.00;;;;;;10848154;32;20057;-71
2023/04/13 23:01:47;;;;;;;0.85;0.80;;;11.10;85.60;;;;;;10866991;32;20016;-70
2023/04/13 23:07:50;;;;;;;0.57;0.57;;;11.00;85.60;;;;;;10866289;32;20016;-70
2023/04/13 23:13:53;;;;;;;0.50;0.50;;;11.10;86.10;;;;;;10867002;32;20314;-70
2023/04/13 23:19:55;;;;;;;0.47;0.43;;;11.10;85.60;;;;;;10851953;32;20085;-71
2023/04/13 23:25:57;;;;;;;0.37;0.37;;;10.90;85.40;;;;;;10867998;32;20038;-71
2023/04/13 23:31:59;;;;;;;1.35;0.77;;;10.90;85.60;;;;;;10873255;32;20020;-72
2023/04/13 23:38:01;;;;;;;0.45;0.45;;;10.90;85.90;;;;;;10873147;32;20046;-72
2023/04/13 23:44:03;;;;;;;1.55;0.98;;;11.10;86.30;;;;;;10871931;32;20053;-72
2023/04/13 23:50:05;;;;;;;0.80;0.80;;;11.20;85.60;;;;;;10877508;27;20361;-72
2023/04/13 23:56:07;;;;;;;0.50;0.50;;;11.20;85.70;;;;;;10871563;32;20398;-72
